createdAt,value
2022-11-22T00:01:18.447Z,23.53
2022-11-22T00:03:46.520Z,23.90
2022-11-22T00:06:14.596Z,24.40
2022-11-22T00:08:42.682Z,22.97
2022-11-22T00:11:10.812Z,23.73
2022-11-22T00:13:40.231Z,23.77
2022-11-22T00:16:08.348Z,22.40
2022-11-22T00:18:36.435Z,20.93
2022-11-22T00:21:08.941Z,20.63
2022-11-22T00:23:37.179Z,22.67
2022-11-22T00:26:06.948Z,22.10
2022-11-22T00:28:35.043Z,22.40
2022-11-22T00:31:04.480Z,21.77
2022-11-22T00:33:32.590Z,23.57
2022-11-22T00:36:00.730Z,21.30
2022-11-22T00:38:29.143Z,22.10
2022-11-22T00:40:57.269Z,22.27
2022-11-22T00:43:25.417Z,20.83
2022-11-22T00:45:53.952Z,21.03
2022-11-22T00:48:23.383Z,21.57
2022-11-22T00:50:51.494Z,20.37
2022-11-22T00:53:19.991Z,20.97
2022-11-22T00:55:48.180Z,19.70
2022-11-22T00:58:16.861Z,21.47
2022-11-22T01:00:45.380Z,21.70
2022-11-22T01:03:14.853Z,20.00
2022-11-22T01:05:44.355Z,22.00
2022-11-22T01:08:12.531Z,22.33
2022-11-22T01:10:40.721Z,20.67
2022-11-22T01:13:13.698Z,20.83
2022-11-22T01:15:41.814Z,19.90
2022-11-22T01:18:09.883Z,21.27
2022-11-22T01:20:37.981Z,22.60
2022-11-22T01:23:07.526Z,22.80
2022-11-22T01:25:35.650Z,21.77
2022-11-22T01:28:04.276Z,20.23
2022-11-22T01:30:32.450Z,21.27
2022-11-22T01:33:00.535Z,21.73
2022-11-22T01:35:28.695Z,20.30
2022-11-22T01:37:56.843Z,23.23
2022-11-22T01:40:26.355Z,22.40
2022-11-22T01:42:57.101Z,21.83
2022-11-22T01:45:48.604Z,22.50
2022-11-22T01:48:33.810Z,21.47
2022-11-22T01:51:08.985Z,24.50
2022-11-22T01:53:40.161Z,22.37
2022-11-22T01:56:14.286Z,21.20
2022-11-22T01:58:45.822Z,21.17
2022-11-22T02:01:14.063Z,25.33
2022-11-22T02:03:47.896Z,22.83
2022-11-22T02:06:17.227Z,24.13
2022-11-22T02:08:58.551Z,22.83
2022-11-22T02:11:34.003Z,22.33
2022-11-22T02:14:04.092Z,25.40
2022-11-22T02:16:33.064Z,21.90
2022-11-22T02:19:01.183Z,22.03
2022-11-22T02:21:30.318Z,22.00
2022-11-22T02:24:09.613Z,20.73
2022-11-22T02:26:39.128Z,23.67
2022-11-22T02:29:09.549Z,20.60
2022-11-22T02:31:43.445Z,21.30
2022-11-22T02:34:12.290Z,21.30
2022-11-22T02:36:46.613Z,24.13
2022-11-22T02:39:20.628Z,22.70
2022-11-22T02:41:51.307Z,20.90
2022-11-22T02:44:21.207Z,19.93
2022-11-22T02:46:52.185Z,19.80
2022-11-22T02:49:23.333Z,24.53
2022-11-22T02:51:53.445Z,22.10
2022-11-22T02:54:21.707Z,23.67
2022-11-22T02:56:51.228Z,21.40
2022-11-22T02:59:19.328Z,19.77
2022-11-22T03:01:48.717Z,21.53
2022-11-22T03:04:25.478Z,18.77
2022-11-22T03:06:56.167Z,20.63
2022-11-22T03:09:24.998Z,21.30
2022-11-22T03:11:55.776Z,23.43
2022-11-22T03:14:24.132Z,19.67
2022-11-22T03:16:52.862Z,20.70
2022-11-22T03:19:21.243Z,24.27
2022-11-22T03:21:49.552Z,20.17
2022-11-22T03:24:19.916Z,21.07
2022-11-22T03:26:49.420Z,21.20
2022-11-22T03:29:19.299Z,22.40
2022-11-22T03:31:47.524Z,18.90
2022-11-22T03:34:17.014Z,17.17
2022-11-22T03:36:45.447Z,20.43
2022-11-22T03:39:13.609Z,21.77
2022-11-22T03:41:41.880Z,21.53
2022-11-22T03:44:10.025Z,19.67
2022-11-22T03:46:39.533Z,21.27
2022-11-22T03:49:07.707Z,22.40
2022-11-22T03:51:35.876Z,19.43
2022-11-22T03:54:04.034Z,20.47
2022-11-22T03:56:32.297Z,21.07
2022-11-22T03:59:00.631Z,21.40
2022-11-22T04:01:28.811Z,21.07
2022-11-22T04:03:58.375Z,20.53
2022-11-22T04:06:26.471Z,20.13
2022-11-22T04:08:54.623Z,20.00
2022-11-22T04:11:22.806Z,20.13
2022-11-22T04:14:08.260Z,21.97
2022-11-22T04:16:36.470Z,22.73
2022-11-22T04:19:05.923Z,21.53
2022-11-22T04:21:36.024Z,22.33
2022-11-22T04:24:24.412Z,21.60
2022-11-22T04:26:52.860Z,20.83
2022-11-22T04:29:23.158Z,19.43
2022-11-22T04:32:10.570Z,22.60
2022-11-22T04:34:40.048Z,20.97
2022-11-22T04:37:08.404Z,21.20
2022-11-22T04:39:36.654Z,20.23
2022-11-22T04:42:22.548Z,18.93
2022-11-22T04:44:50.690Z,23.77
2022-11-22T04:47:34.126Z,18.57
2022-11-22T04:50:25.805Z,18.23
2022-11-22T04:52:55.389Z,20.17
2022-11-22T04:55:23.654Z,17.80
2022-11-22T04:57:57.525Z,19.53
2022-11-22T05:00:28.109Z,18.80
2022-11-22T05:02:56.298Z,21.50
2022-11-22T05:05:26.765Z,18.90
2022-11-22T05:07:55.190Z,20.67
2022-11-22T05:10:26.856Z,20.07
2022-11-22T05:12:57.110Z,19.90
2022-11-22T05:15:25.372Z,18.90
2022-11-22T05:17:53.500Z,20.60
2022-11-22T05:20:21.627Z,18.03
2022-11-22T05:23:08.675Z,19.67
2022-11-22T05:25:36.747Z,18.30
2022-11-22T05:28:04.919Z,20.53
2022-11-22T05:30:32.989Z,21.53
2022-11-22T05:33:01.119Z,19.93
2022-11-22T05:35:29.486Z,19.93
2022-11-22T05:37:59.575Z,23.30
2022-11-22T05:40:28.099Z,21.03
2022-11-22T05:42:56.244Z,21.57
2022-11-22T05:45:24.360Z,20.03
2022-11-22T05:47:52.524Z,19.30
2022-11-22T05:50:20.673Z,18.73
2022-11-22T05:52:48.816Z,19.87
2022-11-22T05:55:18.512Z,20.37
2022-11-22T05:57:46.637Z,19.97
2022-11-22T06:00:15.931Z,23.17
2022-11-22T06:02:44.083Z,20.57
2022-11-22T06:05:12.310Z,21.47
2022-11-22T06:07:40.498Z,21.30
2022-11-22T06:10:10.146Z,21.03
2022-11-22T06:12:39.663Z,22.57
2022-11-22T06:15:09.444Z,20.27
2022-11-22T06:17:37.598Z,21.70
2022-11-22T06:20:07.035Z,20.53
2022-11-22T06:22:35.233Z,17.77
2022-11-22T06:25:03.428Z,20.23
2022-11-22T06:27:31.734Z,20.93
2022-11-22T06:30:01.191Z,21.03
2022-11-22T06:32:29.353Z,21.30
2022-11-22T06:34:57.442Z,20.40
2022-11-22T06:37:25.619Z,20.17
2022-11-22T06:39:53.893Z,22.87
2022-11-22T06:42:22.015Z,22.43
2022-11-22T06:44:50.141Z,19.90
2022-11-22T06:47:19.628Z,20.83
2022-11-22T06:49:47.765Z,20.07
2022-11-22T06:52:15.866Z,19.13
2022-11-22T06:54:44.065Z,22.93
2022-11-22T06:57:14.985Z,22.77
2022-11-22T06:59:43.108Z,21.73
2022-11-22T07:02:13.294Z,20.00
2022-11-22T07:04:56.289Z,21.70
2022-11-22T07:07:31.027Z,20.33
2022-11-22T07:09:59.275Z,20.93
2022-11-22T07:12:27.758Z,19.47
2022-11-22T07:14:55.822Z,20.60
2022-11-22T07:17:23.848Z,21.63
2022-11-22T07:19:53.195Z,23.30
2022-11-22T07:22:21.214Z,21.03
2022-11-22T07:24:49.262Z,18.70
2022-11-22T07:27:17.324Z,23.23
2022-11-22T07:29:45.437Z,20.57
2022-11-22T07:32:13.463Z,21.50
2022-11-22T07:34:41.508Z,24.70
2022-11-22T07:37:10.966Z,23.83
2022-11-22T07:39:39.028Z,20.47
2022-11-22T07:42:07.152Z,22.63
2022-11-22T07:44:35.196Z,19.03
2022-11-22T07:47:03.226Z,22.20
2022-11-22T07:49:31.499Z,21.17
2022-11-22T07:52:00.052Z,20.00
2022-11-22T07:54:29.504Z,21.13
2022-11-22T07:56:57.614Z,20.83
2022-11-22T07:59:25.632Z,21.60
2022-11-22T08:01:53.764Z,22.07
2022-11-22T08:04:21.839Z,22.63
2022-11-22T08:06:49.924Z,19.70
2022-11-22T08:09:17.976Z,20.50
2022-11-22T08:11:47.423Z,23.00
2022-11-22T08:14:15.657Z,20.93
2022-11-22T08:16:43.749Z,20.27
2022-11-22T08:19:15.932Z,20.87
2022-11-22T08:21:43.985Z,23.87
2022-11-22T08:24:12.458Z,19.37
2022-11-22T08:26:40.597Z,17.90
2022-11-22T08:29:14.561Z,17.40
2022-11-22T08:31:42.833Z,18.63
2022-11-22T08:34:10.859Z,16.73
2022-11-22T08:36:39.208Z,18.37
2022-11-22T08:39:07.520Z,20.20
2022-11-22T08:41:35.741Z,17.87
2022-11-22T08:44:03.808Z,16.63
2022-11-22T08:46:33.186Z,17.93
2022-11-22T08:49:03.694Z,17.00
2022-11-22T08:51:36.867Z,17.83
2022-11-22T08:54:05.044Z,17.10
2022-11-22T08:56:33.093Z,17.40
2022-11-22T08:59:01.307Z,18.10
2022-11-22T09:01:29.399Z,18.30
2022-11-22T09:03:58.867Z,18.57
2022-11-22T09:09:36.272Z,15.43
2022-11-22T09:12:03.083Z,15.23
2022-11-22T09:14:31.135Z,16.40
2022-11-22T09:16:59.176Z,16.73
2022-11-22T09:19:28.721Z,15.60
2022-11-22T09:21:56.957Z,16.33
2022-11-22T09:24:25.071Z,15.47
2022-11-22T09:26:53.135Z,14.87
2022-11-22T09:29:21.236Z,15.40
2022-11-22T09:31:49.566Z,15.97
2022-11-22T09:34:17.577Z,17.40
2022-11-22T09:36:46.951Z,16.00
2022-11-22T09:39:15.038Z,19.13
2022-11-22T09:42:33.430Z,15.57
2022-11-22T09:45:27.426Z,17.10
2022-11-22T09:48:11.319Z,16.23
2022-11-22T09:50:49.820Z,14.77
2022-11-22T09:53:27.819Z,15.80
2022-11-22T09:56:01.596Z,14.90
2022-11-22T09:58:34.404Z,15.57
2022-11-22T10:01:11.334Z,16.07
2022-11-22T10:03:47.321Z,13.97
2022-11-22T10:06:23.865Z,15.53
2022-11-22T10:09:11.754Z,16.10
2022-11-22T10:11:48.003Z,15.93
2022-11-22T10:14:32.792Z,14.50
2022-11-22T10:17:18.547Z,18.40
2022-11-22T10:19:59.489Z,18.30
2022-11-22T10:22:31.106Z,18.40
2022-11-22T10:25:04.223Z,15.43
2022-11-22T10:27:34.427Z,15.23
2022-11-22T10:30:07.446Z,14.87
2022-11-22T10:32:44.153Z,16.73
2022-11-22T10:35:41.729Z,14.33
2022-11-22T10:38:44.053Z,16.37
2022-11-22T10:41:38.501Z,14.40
2022-11-22T10:44:28.630Z,16.97
2022-11-22T10:47:13.352Z,14.93
2022-11-22T10:49:57.106Z,12.80
2022-11-22T10:52:37.636Z,17.30
2022-11-22T10:55:27.092Z,17.73
2022-11-22T10:58:08.827Z,17.07
2022-11-22T11:00:45.078Z,16.10
2022-11-22T11:03:28.498Z,17.47
2022-11-22T11:06:22.820Z,17.97
2022-11-22T11:09:54.845Z,14.17
2022-11-22T11:11:52.288Z,16.20
2022-11-22T11:14:31.528Z,15.03
2022-11-22T11:17:02.243Z,13.93
2022-11-22T11:19:36.505Z,12.30
2022-11-22T11:22:44.283Z,11.80
2022-11-22T11:25:31.705Z,15.43
2022-11-22T11:28:06.919Z,16.17
2022-11-22T11:30:46.628Z,13.77
2022-11-22T11:33:30.171Z,12.63
2022-11-22T11:36:06.849Z,12.33
2022-11-22T11:38:38.590Z,17.10
2022-11-22T11:41:26.610Z,13.40
2022-11-22T11:43:57.262Z,12.10
2022-11-22T11:46:29.696Z,12.70
2022-11-22T11:49:11.921Z,13.07
2022-11-22T11:51:42.344Z,11.43
2022-11-22T11:54:16.563Z,10.17
2022-11-22T11:56:50.882Z,12.10
2022-11-22T11:59:21.376Z,13.67
2022-11-22T12:01:58.410Z,10.47
2022-11-22T12:04:31.210Z,10.70
2022-11-22T12:07:05.449Z,10.43
2022-11-22T12:09:37.654Z,8.70
2022-11-22T12:12:36.941Z,9.87
2022-11-22T12:15:17.800Z,10.67
2022-11-22T12:17:57.205Z,10.63
2022-11-22T12:20:41.476Z,12.33
2022-11-22T12:23:21.526Z,9.60
2022-11-22T12:25:54.521Z,9.73
2022-11-22T12:28:26.433Z,10.63
2022-11-22T12:31:01.101Z,10.43
2022-11-22T12:33:37.386Z,11.27
2022-11-22T12:36:15.744Z,9.33
2022-11-22T12:38:46.951Z,10.37
2022-11-22T12:41:19.100Z,9.27
2022-11-22T12:43:54.575Z,9.83
2022-11-22T12:46:28.985Z,11.30
2022-11-22T12:49:03.746Z,9.73
2022-11-22T12:51:46.554Z,10.33
2022-11-22T12:54:23.505Z,10.23
2022-11-22T12:56:57.032Z,11.30
2022-11-22T12:59:39.214Z,10.67
2022-11-22T13:02:32.012Z,8.90
2022-11-22T13:05:10.250Z,12.63
2022-11-22T13:07:58.266Z,10.57
2022-11-22T13:10:37.352Z,9.83
2022-11-22T13:13:11.156Z,11.07
2022-11-22T13:15:41.824Z,8.60
2022-11-22T13:18:12.611Z,9.87
2022-11-22T13:20:58.004Z,9.53
2022-11-22T13:23:50.862Z,10.10
2022-11-22T13:26:30.008Z,11.20
2022-11-22T13:28:59.327Z,14.03
2022-11-22T13:31:27.638Z,11.47
2022-11-22T13:33:59.289Z,10.17
2022-11-22T13:36:41.201Z,10.57
2022-11-22T13:39:19.908Z,10.07
2022-11-22T13:42:06.976Z,12.80
2022-11-22T13:44:52.988Z,14.13
2022-11-22T13:47:43.465Z,10.57
2022-11-22T13:51:03.345Z,9.90
2022-11-22T13:53:36.887Z,7.57
2022-11-22T13:56:59.579Z,11.27
2022-11-22T13:59:28.052Z,8.23
2022-11-22T14:02:22.396Z,11.00
2022-11-22T14:04:56.208Z,10.40
2022-11-22T14:07:40.006Z,9.70
2022-11-22T14:10:35.800Z,13.43
2022-11-22T14:13:36.953Z,9.50
2022-11-22T14:16:28.760Z,12.37
2022-11-22T14:19:18.746Z,8.57
2022-11-22T14:22:19.445Z,9.30
2022-11-22T14:25:05.522Z,8.90
2022-11-22T14:27:52.202Z,9.07
2022-11-22T14:30:22.099Z,9.33
2022-11-22T14:33:04.225Z,9.77
2022-11-22T14:35:35.894Z,10.17
2022-11-22T14:38:30.627Z,11.53
2022-11-22T14:41:43.890Z,10.60
2022-11-22T14:44:18.371Z,10.13
2022-11-22T14:46:56.164Z,11.23
2022-11-22T14:49:42.891Z,15.07
2022-11-22T14:52:22.318Z,11.57
2022-11-22T14:54:57.476Z,14.20
2022-11-22T14:57:30.323Z,11.67
2022-11-22T15:00:19.858Z,11.20
2022-11-22T15:03:37.073Z,13.20
2022-11-22T15:09:10.825Z,13.00
2022-11-22T15:09:53.949Z,12.83
2022-11-22T15:13:11.622Z,13.40
2022-11-22T15:57:31.951Z,16.77
2022-11-22T16:00:00.942Z,17.63
2022-11-22T16:02:32.307Z,16.30
2022-11-22T16:06:07.268Z,19.07
2022-11-22T16:07:57.306Z,16.80
2022-11-22T16:10:38.565Z,18.70
2022-11-22T16:13:15.158Z,14.77
2022-11-22T16:15:43.274Z,15.90
2022-11-22T16:18:28.433Z,16.67
2022-11-22T16:21:06.109Z,17.40
2022-11-22T16:23:37.296Z,15.40
2022-11-22T16:26:24.611Z,16.03
2022-11-22T16:28:55.196Z,12.90
2022-11-22T16:31:26.048Z,14.17
2022-11-22T16:33:56.517Z,18.17
2022-11-22T16:36:30.446Z,14.77
2022-11-22T16:38:59.525Z,15.77
2022-11-22T16:41:30.349Z,18.33
2022-11-22T16:44:02.898Z,16.23
2022-11-22T16:46:31.473Z,20.10
2022-11-22T16:48:59.594Z,16.43
2022-11-22T16:51:30.883Z,16.40
2022-11-22T16:54:06.736Z,19.33
2022-11-22T16:56:35.186Z,17.53
2022-11-22T16:59:06.897Z,14.50
2022-11-22T17:01:42.012Z,15.27
2022-11-22T17:04:23.040Z,15.23
2022-11-22T17:06:53.164Z,14.03
2022-11-22T17:09:21.266Z,17.70
2022-11-22T17:11:50.266Z,14.47
2022-11-22T17:14:20.675Z,17.63
2022-11-22T17:16:48.915Z,18.37
2022-11-22T17:19:51.540Z,14.67
2022-11-22T17:22:07.227Z,14.00
2022-11-22T17:24:35.470Z,14.10
2022-11-22T17:27:03.596Z,13.93
2022-11-22T17:32:20.263Z,18.67
2022-11-22T17:34:48.400Z,18.87
2022-11-22T17:37:17.920Z,16.13
2022-11-22T17:39:46.358Z,20.57
2022-11-22T17:42:15.244Z,15.63
2022-11-22T17:44:43.355Z,16.97
2022-11-22T17:47:11.507Z,18.20
2022-11-22T17:49:39.878Z,17.37
2022-11-22T17:52:08.020Z,18.03
2022-11-22T17:54:38.767Z,19.13
2022-11-22T17:57:06.841Z,18.17
2022-11-22T17:59:35.197Z,18.20
2022-11-22T18:02:03.478Z,17.87
2022-11-22T18:04:31.954Z,19.07
2022-11-22T18:07:00.255Z,20.67
2022-11-22T18:09:28.639Z,20.50
2022-11-22T18:11:58.394Z,17.83
2022-11-22T18:14:27.589Z,16.80
2022-11-22T18:16:55.683Z,15.13
2022-11-22T18:19:24.308Z,15.33
2022-11-22T18:21:52.744Z,15.67
2022-11-22T18:24:20.855Z,17.77
2022-11-22T18:26:49.639Z,21.93
2022-11-22T18:32:07.360Z,15.57
2022-11-22T18:34:35.579Z,17.20
2022-11-22T18:37:05.104Z,18.20
2022-11-22T18:42:24.366Z,21.60
2022-11-22T18:44:53.832Z,18.50
2022-11-22T18:47:21.928Z,19.53
2022-11-22T18:49:50.179Z,22.23
2022-11-22T18:52:18.379Z,20.20
2022-11-22T18:54:46.607Z,19.50
2022-11-22T18:57:14.750Z,16.17
2022-11-22T18:59:42.849Z,18.43
2022-11-22T19:02:12.354Z,17.40
2022-11-22T19:04:40.455Z,16.50
2022-11-22T19:07:08.641Z,21.37
2022-11-22T19:09:36.867Z,22.30
2022-11-22T19:12:05.685Z,19.23
2022-11-22T19:14:34.009Z,18.33
2022-11-22T19:17:02.359Z,20.57
2022-11-22T19:19:32.322Z,18.73
2022-11-22T19:22:01.135Z,20.90
2022-11-22T19:24:30.021Z,19.00
2022-11-22T19:26:58.462Z,18.90
2022-11-22T19:29:26.644Z,20.10
2022-11-22T19:31:54.814Z,18.23
2022-11-22T19:34:22.923Z,20.80
2022-11-22T19:36:52.438Z,21.03
2022-11-22T19:39:20.588Z,16.33
2022-11-22T19:41:48.764Z,19.07
2022-11-22T19:44:16.876Z,19.43
2022-11-22T19:46:45.006Z,18.43
2022-11-22T19:49:13.224Z,17.27
2022-11-22T19:51:41.428Z,17.70
2022-11-22T19:54:11.028Z,16.10
2022-11-22T19:56:39.993Z,21.53
2022-11-22T19:59:10.340Z,20.67
2022-11-22T20:01:39.669Z,17.43
2022-11-22T20:04:08.103Z,16.00
2022-11-22T20:06:37.622Z,16.10
2022-11-22T20:09:09.157Z,17.97
2022-11-22T20:11:40.067Z,17.27
2022-11-22T20:14:09.753Z,15.70
2022-11-22T20:16:41.115Z,16.07
2022-11-22T20:19:09.599Z,15.23
2022-11-22T20:21:39.881Z,15.60
2022-11-22T20:24:08.715Z,16.43
2022-11-22T20:26:38.396Z,16.40
2022-11-22T20:29:09.267Z,15.97
2022-11-22T20:31:38.567Z,15.07
2022-11-22T20:34:06.791Z,16.20
2022-11-22T20:36:36.591Z,14.87
2022-11-22T20:39:10.352Z,17.20
2022-11-22T20:41:41.449Z,13.77
2022-11-22T20:44:14.423Z,13.17
2022-11-22T20:46:43.031Z,15.30
2022-11-22T20:49:11.304Z,15.67
2022-11-22T20:51:40.174Z,12.57
2022-11-22T20:54:09.244Z,14.33
2022-11-22T20:56:39.538Z,13.40
2022-11-22T20:59:07.878Z,16.80
2022-11-22T21:01:36.104Z,11.93
2022-11-22T21:04:04.553Z,15.07
2022-11-22T21:06:34.801Z,15.43
2022-11-22T21:09:02.937Z,16.53
2022-11-22T21:11:31.967Z,13.90
2022-11-22T21:14:01.652Z,12.30
2022-11-22T21:16:31.328Z,14.33
2022-11-22T21:19:01.991Z,13.33
2022-11-22T21:21:31.554Z,13.07
2022-11-22T21:24:02.546Z,12.30
2022-11-22T21:26:31.603Z,12.67
2022-11-22T21:29:03.224Z,12.60
2022-11-22T21:31:31.437Z,13.77
2022-11-22T21:33:59.574Z,12.23
2022-11-22T21:36:27.889Z,13.00
2022-11-22T21:38:55.998Z,11.67
2022-11-22T21:41:40.885Z,12.13
2022-11-22T21:44:11.592Z,13.60
2022-11-22T21:46:40.096Z,11.60
2022-11-22T21:49:08.593Z,13.93
2022-11-22T21:51:36.735Z,12.00
2022-11-22T21:54:05.919Z,13.67
2022-11-22T21:56:34.384Z,12.50
2022-11-22T21:59:02.638Z,14.67
2022-11-22T22:01:32.757Z,15.07
2022-11-22T22:04:00.882Z,11.93
2022-11-22T22:06:29.012Z,12.80
2022-11-22T22:08:57.216Z,13.63
2022-11-22T22:11:25.372Z,14.33
2022-11-22T22:13:55.144Z,15.53
2022-11-22T22:16:25.861Z,13.70
2022-11-22T22:18:55.462Z,13.67
2022-11-22T22:21:23.572Z,14.63
2022-11-22T22:23:53.307Z,14.03
2022-11-22T22:26:21.471Z,13.97
2022-11-22T22:28:49.579Z,14.33
2022-11-22T22:31:21.440Z,19.33
2022-11-22T22:33:51.012Z,12.40
2022-11-22T22:36:20.631Z,13.27
2022-11-22T22:38:50.151Z,15.03
2022-11-22T22:41:19.007Z,15.37
2022-11-22T22:43:49.736Z,13.57
2022-11-22T22:46:20.045Z,13.30
2022-11-22T22:48:49.553Z,11.77
2022-11-22T22:51:21.437Z,15.03
2022-11-22T22:53:50.539Z,13.17
2022-11-22T22:56:21.532Z,12.93
2022-11-22T22:58:53.904Z,16.90
2022-11-22T23:01:25.354Z,13.13
2022-11-22T23:03:57.225Z,16.60
2022-11-22T23:06:29.843Z,14.03
2022-11-22T23:08:59.314Z,15.37
2022-11-22T23:11:44.113Z,13.17
2022-11-22T23:14:12.940Z,15.73
2022-11-22T23:16:41.210Z,16.33
2022-11-22T23:19:10.041Z,14.23
2022-11-22T23:21:39.619Z,16.17
2022-11-22T23:24:09.212Z,12.30
2022-11-22T23:26:38.436Z,14.10
2022-11-22T23:29:06.873Z,12.67
2022-11-22T23:31:35.080Z,14.53
2022-11-22T23:34:03.520Z,11.33
2022-11-22T23:36:34.814Z,12.77
2022-11-22T23:39:07.101Z,13.33
2022-11-22T23:41:35.272Z,13.37
2022-11-22T23:44:03.701Z,12.93
2022-11-22T23:46:31.807Z,14.07
2022-11-22T23:49:02.331Z,13.67
2022-11-22T23:51:33.252Z,13.63
2022-11-22T23:54:04.036Z,13.63
2022-11-22T23:56:36.291Z,14.30
2022-11-22T23:59:05.997Z,12.10
